Terminal Aerodrome Forecast
Issued by NWS Sioux Falls, SD

Home | Current Version | Previous Version | Text Only | Print | Product List | Glossary On
Versions: 1 2 3 4 5 6 7 8 9 10 11 12 13 14 15 16 17
000
FTUS43 KFSD 161728
TAFHON
TAF
KHON 161728Z 1618/1718 17010KT P6SM FEW045
     FM170000 14005KT P6SM SCT250
     FM170900 VRB03KT P6SM SKC
     FM171500 05007KT P6SM SKC=

USA.gov is the U.S. government's official web portal to all federal, state and local government web resources and services.